Terminal Aerodrome Forecast
Issued by NWS

Home | Current Version | Previous Version | Text Only | Print | Product List | Glossary On
Versions: 1 2 3 4 5 6 7 8 9 10 11 12 13 14 15
733
FTAK31 PAJN 100543
TAFASI
TAF
PASI 100543Z 1006/1106 10015KT P6SM OVC100 WS020/13035KT
     FM100900 14015G25KT P6SM -RA BKN050 OVC100
     FM101200 14018G28KT 4SM -RA BR FEW006 SCT010 OVC025
     FM101800 18012G20KT 6SM -RA SCT006 SCT010 OVC025=

USA.gov is the U.S. government's official web portal to all federal, state and local government web resources and services.